Time;durP1;ratioP1;P1;durP2;ratioP2;P2;SDS_P1;SDS_P2;PMS_P1;PMS_P2;Temp;Humidity;BMP_temperature;BMP_pressure;BME280_temperature;BME280_humidity;BME280_pressure;Samples;Min_cycle;Max_cycle;Signal;HPM_P1;HPM_P2
2022/06/01 00:02:04;;;;;;;8.95;5.97;;;13.70;71.30;;;9.91;91.03;95474.16;5070503;28;20021;-50
2022/06/01 00:04:29;;;;;;;5.93;5.05;;;13.70;71.30;;;9.88;91.02;95480.78;5071521;28;20028;-53
2022/06/01 00:06:56;;;;;;;7.32;6.40;;;13.70;71.20;;;9.91;91.72;95476.81;5071377;28;20368;-49
2022/06/01 00:09:26;;;;;;;7.25;5.45;;;13.70;71.30;;;9.90;91.11;95476.00;5071510;28;20063;-48
2022/06/01 00:11:52;;;;;;;9.43;6.00;;;13.70;71.30;;;9.85;91.11;95480.50;5072252;28;20040;-48
2022/06/01 00:14:18;;;;;;;6.47;5.45;;;13.70;71.30;;;9.85;91.36;95476.00;5073876;28;20032;-51
2022/06/01 00:16:55;;;;;;;9.82;5.72;;;13.60;71.20;;;9.86;91.42;95476.78;5073912;28;20480;-52
2022/06/01 00:19:27;;;;;;;5.65;5.03;;;13.60;71.40;;;9.81;91.05;95474.09;5075073;28;20588;-51
2022/06/01 00:24:43;;;;;;;8.75;5.65;;;13.60;71.20;;;9.67;90.73;95466.63;5075252;28;20394;-49
2022/06/01 00:27:10;;;;;;;6.68;5.28;;;13.60;71.20;;;9.61;90.96;95475.63;5073692;28;20410;-50
2022/06/01 00:29:37;;;;;;;7.25;5.82;;;13.50;71.10;;;9.64;91.54;95472.47;5075705;28;20052;-48
2022/06/01 00:32:04;;;;;;;8.02;5.78;;;13.50;71.30;;;9.63;91.39;95475.41;5093734;28;20111;-47
2022/06/01 00:34:33;;;;;;;8.55;5.88;;;13.50;71.40;;;9.61;91.43;95472.19;5094841;28;20566;-51
2022/06/01 00:37:05;;;;;;;8.98;5.63;;;13.40;71.60;;;9.59;91.12;95474.28;5093993;28;20020;-47
2022/06/01 00:39:32;;;;;;;7.30;5.57;;;13.40;71.60;;;9.55;91.42;95478.53;5094936;28;20024;-49
2022/06/01 00:42:25;;;;;;;7.25;5.47;;;13.40;71.50;;;9.53;91.09;95478.00;5093719;28;20112;-48
2022/06/01 00:44:52;;;;;;;6.30;5.07;;;13.40;71.70;;;9.49;91.12;95475.06;5093693;28;20029;-48
2022/06/01 00:47:21;;;;;;;8.48;5.50;;;13.30;71.40;;;9.52;91.31;95482.50;5093406;28;20038;-48
2022/06/01 00:50:27;;;;;;;8.40;5.05;;;13.30;71.60;;;9.50;91.32;95474.03;5093690;28;20077;-47
2022/06/01 00:53:08;;;;;;;6.25;5.18;;;13.30;71.70;;;9.45;91.66;95463.34;5093304;28;20389;-48
2022/06/01 00:56:11;;;;;;;7.40;4.93;;;13.30;71.80;;;9.38;91.73;95455.63;5093391;28;20375;-49
2022/06/01 00:58:44;;;;;;;7.00;5.40;;;13.30;71.90;;;9.49;92.22;95469.75;5067581;28;20123;-53
2022/06/01 01:01:21;;;;;;;5.25;4.57;;;13.30;72.00;;;9.49;92.18;95470.56;5073052;28;20483;-50
2022/06/01 01:03:56;;;;;;;9.68;5.55;;;13.30;72.10;;;9.49;91.86;95465.25;5056357;28;20037;-50
2022/06/01 01:06:35;;;;;;;8.10;4.85;;;13.30;72.20;;;9.47;92.12;95456.72;5072803;28;20081;-49
2022/06/01 01:09:03;;;;;;;9.07;6.63;;;13.30;72.30;;;9.52;92.56;95465.75;5073127;28;20032;-48
2022/06/01 01:11:57;;;;;;;6.20;5.20;;;13.30;72.30;;;9.56;92.18;95464.19;5056241;28;20024;-47
2022/06/01 01:14:30;;;;;;;7.40;5.28;;;13.30;72.50;;;9.52;92.26;95453.25;5074117;28;20544;-51
2022/06/01 01:16:59;;;;;;;9.63;5.13;;;13.30;72.40;;;9.50;92.12;95450.88;5056577;28;20043;-48
2022/06/01 01:19:52;;;;;;;7.95;4.82;;;13.30;72.30;;;9.53;91.87;95456.72;5072673;28;20020;-48
2022/06/01 01:22:53;;;;;;;5.53;4.22;;;13.30;72.40;;;9.48;92.14;95455.66;5072807;28;20051;-47
2022/06/01 01:25:20;;;;;;;6.88;4.75;;;13.30;72.20;;;9.47;91.69;95466.56;5018976;28;20038;-47
2022/06/01 01:27:57;;;;;;;9.95;5.13;;;13.30;72.20;;;9.45;92.00;95450.84;5072408;28;20105;-48
2022/06/01 01:30:38;;;;;;;8.07;5.05;;;13.30;72.40;;;9.45;91.84;95458.03;5089147;28;20044;-48
2022/06/01 01:33:19;;;;;;;8.93;6.10;;;13.30;72.40;;;9.42;91.74;95455.91;5072213;28;20119;-48
2022/06/01 01:36:14;;;;;;;5.53;4.97;;;13.30;72.30;;;9.37;91.85;95446.06;5072304;28;20064;-47
2022/06/01 01:39:14;;;;;;;5.72;4.85;;;13.30;72.30;;;9.41;91.84;95449.00;5070533;28;20086;-47
2022/06/01 01:41:49;;;;;;;6.93;5.38;;;13.30;72.30;;;9.38;91.47;95452.97;5073583;28;20032;-49
2022/06/01 01:44:32;;;;;;;8.85;5.30;;;13.30;72.20;;;9.37;91.82;95448.72;5072158;28;20035;-47
2022/06/01 01:47:01;;;;;;;7.78;5.88;;;13.20;72.10;;;9.38;92.41;95454.81;5073157;28;20433;-48
2022/06/01 01:49:38;;;;;;;9.18;5.55;;;13.20;72.10;;;9.42;92.56;95453.25;5071963;28;20048;-48
2022/06/01 01:52:16;;;;;;;7.05;5.15;;;13.30;72.50;;;9.40;92.55;95452.69;5072184;28;20561;-50
2022/06/01 01:55:24;;;;;;;8.40;5.47;;;13.20;72.40;;;9.48;92.83;95462.84;5073379;28;20562;-48
2022/06/01 01:58:39;;;;;;;7.57;5.60;;;13.30;72.50;;;9.48;92.61;95458.31;5071261;28;20036;-48
2022/06/01 02:01:24;;;;;;;7.30;5.35;;;13.30;72.40;;;9.49;92.87;95457.28;5064554;28;20024;-47
2022/06/01 02:06:03;;;;;;;6.65;5.28;;;13.30;72.40;;;9.52;92.97;95455.13;5071798;28;20024;-47
2022/06/01 02:07:03;;;;;;;9.25;5.72;;;13.30;72.50;;;9.53;92.65;95456.72;5071592;28;20036;-48
2022/06/01 02:12:40;;;;;;;7.63;5.40;;;13.30;72.50;;;9.51;92.80;95454.34;5071931;28;20116;-48
2022/06/01 02:15:08;;;;;;;6.25;5.25;;;13.30;72.70;;;9.75;93.92;95457.34;5071646;28;20518;-47
2022/06/01 02:17:49;;;;;;;5.63;4.45;;;13.40;72.90;;;9.81;94.08;95458.13;5071398;28;20032;-47
2022/06/01 02:20:51;;;;;;;7.93;4.78;;;13.40;73.20;;;9.84;93.33;95455.78;5072718;28;20031;-47
2022/06/01 02:23:17;;;;;;;6.05;4.45;;;13.50;73.20;;;9.75;92.99;95444.03;5072826;28;20070;-47
2022/06/01 02:25:48;;;;;;;5.95;3.88;;;13.50;72.70;;;9.69;92.28;95437.13;5072577;28;20024;-48
2022/06/01 02:28:15;;;;;;;8.07;4.43;;;13.50;73.30;;;9.61;92.03;95443.72;5071475;28;20023;-48
2022/06/01 02:30:52;;;;;;;8.40;6.43;;;13.50;72.40;;;9.69;93.83;95448.53;5071284;28;20029;-47
2022/06/01 02:33:27;;;;;;;7.47;4.95;;;13.50;72.90;;;9.73;93.50;95449.63;5071191;28;20021;-47
2022/06/01 02:35:58;;;;;;;7.00;5.22;;;13.50;72.90;;;9.72;93.36;95450.69;5071390;28;20604;-46
2022/06/01 02:38:46;;;;;;;6.32;4.57;;;13.50;72.80;;;9.65;92.59;95449.31;5071492;28;20035;-47
2022/06/01 02:44:09;;;;;;;8.73;4.75;;;13.40;72.60;;;9.43;92.03;95426.41;5072866;28;20082;-49
2022/06/01 02:46:50;;;;;;;8.60;5.38;;;13.40;72.30;;;9.52;92.26;95441.84;5072269;28;20020;-47
2022/06/01 02:49:18;;;;;;;7.25;5.90;;;13.40;72.60;;;9.53;93.01;95440.75;5071221;28;20514;-47
2022/06/01 02:51:46;;;;;;;6.05;5.22;;;13.30;72.60;;;9.49;92.90;95438.66;5071964;28;20033;-52
2022/06/01 02:54:13;;;;;;;8.13;5.70;;;13.30;72.60;;;9.43;92.64;95438.88;5087772;28;20549;-47
2022/06/01 02:56:46;;;;;;;16.00;5.82;;;13.30;72.60;;;9.41;92.32;95438.34;5038142;28;20483;-50
2022/06/01 02:59:15;;;;;;;7.72;6.53;;;13.30;72.70;;;9.40;92.97;95434.91;5071148;28;20119;-52
2022/06/01 03:01:43;;;;;;;8.30;6.22;;;13.30;72.80;;;9.44;92.99;95435.97;5070931;28;20073;-55
2022/06/01 03:04:08;;;;;;;9.25;6.40;;;13.20;72.70;;;9.43;93.36;95439.69;5070627;28;20045;-52
2022/06/01 03:06:34;;;;;;;8.85;5.60;;;13.20;72.80;;;9.43;92.93;95437.03;5071806;28;20028;-53
2022/06/01 03:09:00;;;;;;;12.73;6.63;;;13.20;72.90;;;9.37;93.16;95432.75;5054097;28;20111;-55
2022/06/01 03:11:34;;;;;;;6.88;5.72;;;13.20;72.90;;;9.38;93.11;95442.31;5072035;28;20032;-52
2022/06/01 03:14:06;;;;;;;9.38;6.03;;;13.20;73.00;;;9.35;93.03;95442.06;5072058;28;20498;-53
2022/06/01 03:16:32;;;;;;;9.25;6.40;;;13.20;73.10;;;9.32;93.15;95447.88;5070649;28;20073;-54
2022/06/01 03:19:07;;;;;;;9.43;6.10;;;13.20;73.00;;;9.26;93.10;95439.88;5070761;28;20133;-51
2022/06/01 03:21:36;;;;;;;10.05;6.15;;;13.20;73.20;;;9.25;93.17;95446.25;5070639;28;20021;-52
2022/06/01 03:24:11;;;;;;;7.65;6.03;;;13.10;73.10;;;9.26;93.37;95445.19;5070861;28;20063;-55
2022/06/01 03:26:43;;;;;;;6.75;5.05;;;13.10;73.20;;;9.22;92.65;95452.09;5071975;28;20059;-55
2022/06/01 03:29:09;;;;;;;10.63;5.97;;;13.10;73.10;;;9.16;92.81;95452.31;5054098;28;20039;-55
2022/06/01 03:31:47;;;;;;;9.02;6.70;;;13.10;73.10;;;9.23;93.79;95455.53;5070646;28;20066;-53
2022/06/01 03:34:16;;;;;;;8.27;5.82;;;13.10;73.50;;;9.28;93.36;95455.59;5070488;28;20078;-56
2022/06/01 03:36:48;;;;;;;8.07;6.18;;;13.20;73.30;;;9.29;93.37;95453.72;5070580;28;20071;-56
2022/06/01 03:39:20;;;;;;;7.35;5.82;;;13.20;73.30;;;9.27;93.16;95449.47;5071797;28;20364;-57
2022/06/01 03:41:48;;;;;;;10.63;8.18;;;13.20;73.20;;;9.31;93.77;95444.44;5070434;28;20025;-52
2022/06/01 03:47:18;;;;;;;8.93;7.20;;;13.20;73.40;;;9.46;94.15;95447.16;5074308;28;20123;-55
2022/06/01 03:49:43;;;;;;;9.02;6.70;;;13.30;73.60;;;9.52;93.98;95449.81;5075749;28;20020;-56
2022/06/01 03:52:19;;;;;;;12.20;6.18;;;13.30;73.40;;;9.54;93.76;95458.34;5074223;28;20020;-53
2022/06/01 03:54:48;;;;;;;9.32;6.25;;;13.50;73.70;;;9.64;94.01;95459.16;5074235;28;20078;-56
2022/06/01 03:57:17;;;;;;;7.95;5.47;;;13.50;73.60;;;9.70;94.03;95463.44;5075361;28;20099;-55
2022/06/01 03:59:49;;;;;;;7.10;5.60;;;13.60;73.60;;;9.79;94.13;95471.72;5074135;28;20025;-55
2022/06/01 04:02:18;;;;;;;6.50;5.85;;;13.60;73.60;;;9.85;94.15;95465.34;5074151;28;20079;-57
2022/06/01 04:04:44;;;;;;;8.02;6.03;;;13.70;73.60;;;9.90;94.23;95473.34;5075106;28;20044;-55
2022/06/01 04:07:09;;;;;;;7.55;5.88;;;13.80;73.60;;;9.99;94.33;95470.16;5075143;28;20468;-56
2022/06/01 04:09:38;;;;;;;7.95;6.07;;;13.90;73.50;;;10.05;94.21;95477.88;5073992;28;20032;-53
2022/06/01 04:12:22;;;;;;;7.07;5.93;;;14.00;73.60;;;10.13;93.88;95476.59;5075240;28;20024;-53
2022/06/01 04:14:49;;;;;;;8.32;5.80;;;14.10;73.70;;;10.17;94.23;95477.66;5057102;28;20040;-55
2022/06/01 04:17:18;;;;;;;7.43;5.63;;;14.10;73.40;;;10.28;94.50;95475.81;5073725;28;20033;-54
2022/06/01 04:19:43;;;;;;;7.72;5.53;;;14.20;74.30;;;10.36;94.25;95476.09;5073597;28;20035;-53
2022/06/01 04:22:11;;;;;;;8.10;4.97;;;14.30;73.40;;;10.37;93.82;95461.75;5075000;28;20107;-56
2022/06/01 04:24:37;;;;;;;6.85;4.75;;;14.30;73.20;;;10.43;93.68;95465.19;5073793;28;20030;-56
2022/06/01 04:27:04;;;;;;;9.27;5.13;;;14.40;73.10;;;10.44;93.14;95477.44;5073847;28;20037;-55
2022/06/01 04:29:30;;;;;;;6.90;5.38;;;14.40;72.90;;;10.44;92.85;95476.66;5073547;28;20410;-54
2022/06/01 04:32:20;;;;;;;7.90;5.20;;;14.50;72.90;;;10.52;93.20;95478.78;5073677;28;20032;-55
2022/06/01 04:34:48;;;;;;;11.00;5.70;;;14.50;73.00;;;10.59;93.27;95474.78;5074825;28;20107;-56
2022/06/01 04:37:17;;;;;;;8.48;6.25;;;14.60;72.90;;;10.87;94.03;95491.28;5074696;28;20043;-55
2022/06/01 04:39:46;;;;;;;13.02;7.18;;;14.70;72.90;;;10.95;93.91;95479.28;5074710;28;20027;-55
2022/06/01 04:42:18;;;;;;;7.25;6.18;;;14.90;73.10;;;11.14;93.91;95477.66;5073318;28;20025;-52
2022/06/01 04:44:50;;;;;;;8.73;6.97;;;15.10;73.10;;;11.26;93.80;95474.69;5074671;28;20060;-55
2022/06/01 04:47:18;;;;;;;8.45;6.50;;;15.20;73.00;;;11.37;93.69;95476.25;5073361;28;20418;-55
2022/06/01 04:49:46;;;;;;;9.30;6.18;;;15.30;72.80;;;11.44;93.51;95478.63;5073356;28;20028;-52
2022/06/01 04:52:13;;;;;;;7.90;5.80;;;15.40;72.80;;;11.48;92.93;95482.34;5073316;28;20055;-51
2022/06/01 04:54:42;;;;;;;8.02;5.63;;;15.50;72.70;;;11.51;92.41;95485.28;5073111;28;20483;-53
2022/06/01 04:57:11;;;;;;;6.18;5.03;;;15.70;72.80;;;11.57;92.61;95486.84;5089462;28;20053;-52
2022/06/01 04:59:49;;;;;;;4.47;4.05;;;15.80;72.60;;;11.65;92.60;95480.13;5074255;28;20031;-52
2022/06/01 05:02:18;;;;;;;6.28;3.42;;;15.90;72.60;;;11.75;92.45;95485.44;5073159;28;20033;-56
2022/06/01 05:04:49;;;;;;;3.58;2.92;;;16.10;72.30;;;11.82;92.10;95482.47;5056155;28;20047;-55
2022/06/01 05:07:18;;;;;;;3.60;2.80;;;16.20;72.00;;;11.94;91.91;95471.50;5074116;28;20036;-55
2022/06/01 05:09:47;;;;;;;4.90;2.97;;;16.30;71.60;;;12.03;91.69;95472.50;5074003;28;20025;-52
2022/06/01 05:12:12;;;;;;;3.90;3.25;;;16.40;71.30;;;12.08;91.23;95474.38;5074077;28;20426;-53
2022/06/01 05:14:38;;;;;;;3.38;2.95;;;16.40;71.10;;;12.38;92.25;95476.03;5074063;28;20030;-51
2022/06/01 05:17:04;;;;;;;2.65;2.45;;;16.60;71.00;;;12.93;93.51;95468.63;5073995;28;20029;-54
2022/06/01 05:19:34;;;;;;;2.85;2.15;;;16.80;70.70;;;13.36;90.96;95471.44;5073859;28;20107;-52
2022/06/01 05:22:05;;;;;;;3.60;2.17;;;17.10;70.60;;;13.65;89.46;95474.06;5089394;28;20020;-52
2022/06/01 05:24:31;;;;;;;2.88;2.00;;;17.40;70.20;;;13.99;86.79;95465.84;5069892;28;20115;-56
2022/06/01 05:26:57;;;;;;;3.25;1.80;;;17.70;69.80;;;14.39;85.79;95469.03;5075350;28;20107;-54
2022/06/01 05:29:25;;;;;;;2.78;2.30;;;18.10;69.30;;;14.83;82.79;95467.06;5069150;28;20028;-53
2022/06/01 05:31:51;;;;;;;3.30;2.33;;;18.60;68.70;;;15.09;81.97;95480.81;5071313;28;20408;-52
2022/06/01 05:34:16;;;;;;;6.82;1.88;;;18.80;67.80;;;15.31;80.46;95472.09;5071642;28;20028;-54
2022/06/01 05:36:45;;;;;;;2.65;1.90;;;19.10;67.20;;;15.70;78.57;95475.13;5071362;28;20032;-54
2022/06/01 05:39:11;;;;;;;2.88;2.20;;;19.40;66.40;;;16.15;75.93;95483.31;5070654;28;20028;-55
2022/06/01 05:41:37;;;;;;;3.65;2.05;;;19.80;65.80;;;16.45;72.69;95478.34;5070588;28;20031;-53
2022/06/01 05:44:06;;;;;;;2.55;1.98;;;20.30;64.90;;;16.70;71.26;95478.84;5074561;28;20412;-55
2022/06/01 05:46:35;;;;;;;2.58;1.90;;;20.60;64.00;;;16.95;70.33;95480.16;5070391;28;20514;-53
2022/06/01 05:49:05;;;;;;;4.07;2.03;;;20.80;63.20;;;17.19;69.28;95463.69;5085461;28;20040;-52
2022/06/01 05:51:37;;;;;;;2.97;2.08;;;21.10;62.20;;;17.61;68.18;95472.25;5076439;28;20514;-56
2022/06/01 05:54:12;;;;;;;2.30;1.90;;;21.50;61.30;;;17.94;65.93;95475.41;5071081;28;20028;-55
2022/06/01 05:56:44;;;;;;;3.15;2.10;;;21.90;60.40;;;18.02;65.43;95463.84;5071456;28;20275;-53
2022/06/01 05:59:14;;;;;;;5.20;1.92;;;22.10;59.80;;;17.91;64.72;95466.03;5055414;28;20034;-55
2022/06/01 06:01:40;;;;;;;3.85;1.90;;;22.20;59.00;;;17.79;66.48;95472.00;5069695;28;20056;-55
2022/06/01 06:04:06;;;;;;;2.28;1.88;;;22.20;58.80;;;17.96;67.08;95475.88;5069574;28;20063;-54
2022/06/01 06:06:33;;;;;;;3.25;1.63;;;22.30;58.30;;;17.99;64.82;95472.56;5068433;28;20051;-54
2022/06/01 06:09:03;;;;;;;2.05;1.70;;;22.40;57.80;;;18.08;64.88;95481.44;5067943;28;20048;-52
2022/06/01 06:11:33;;;;;;;1.65;1.50;;;22.50;57.30;;;18.08;64.38;95486.03;5069459;28;20111;-57
2022/06/01 06:14:00;;;;;;;1.85;1.48;;;22.70;57.00;;;18.01;63.21;95483.81;5079266;28;20051;-53
2022/06/01 06:16:29;;;;;;;2.90;1.40;;;22.70;56.50;;;18.11;64.02;95480.00;5072845;28;20055;-56
2022/06/01 06:18:58;;;;;;;2.78;1.80;;;22.90;56.00;;;18.29;63.55;95492.41;5054310;28;20034;-56
2022/06/01 06:21:33;;;;;;;1.98;1.38;;;23.00;55.70;;;18.29;63.63;95495.09;5071503;28;20016;-57
2022/06/01 06:24:01;;;;;;;2.17;1.50;;;23.20;55.30;;;18.37;63.37;95488.94;5068988;28;20095;-53
2022/06/01 06:26:28;;;;;;;2.35;1.63;;;23.20;55.10;;;18.41;62.73;95492.59;5082031;28;20024;-56
2022/06/01 06:29:00;;;;;;;4.15;1.42;;;23.40;54.80;;;18.55;62.35;95492.44;5065662;28;20035;-56
2022/06/01 06:31:25;;;;;;;2.65;1.52;;;23.60;54.20;;;18.77;61.66;95493.41;5064553;28;20119;-54
2022/06/01 06:33:51;;;;;;;3.58;1.98;;;23.80;53.90;;;18.83;60.96;95484.03;5073491;28;20460;-56
2022/06/01 06:36:17;;;;;;;1.77;1.67;;;24.10;53.40;;;19.02;60.36;95483.69;5069299;28;20020;-57
2022/06/01 06:38:52;;;;;;;1.90;1.77;;;24.30;52.70;;;19.35;59.05;95470.44;5070280;28;20023;-56
2022/06/01 06:41:18;;;;;;;2.38;1.77;;;24.70;51.80;;;19.73;57.67;95475.06;5072606;28;20032;-56
2022/06/01 06:43:44;;;;;;;2.85;1.70;;;25.10;51.00;;;19.90;58.28;95480.41;5072315;28;20612;-55
2022/06/01 06:46:20;;;;;;;2.15;1.67;;;25.20;50.30;;;20.18;58.07;95475.31;5071123;28;20123;-55
2022/06/01 06:48:50;;;;;;;5.28;1.90;;;25.50;50.10;;;20.20;56.83;95480.38;5054735;28;20043;-55
2022/06/01 06:51:21;;;;;;;1.80;1.55;;;25.70;49.60;;;20.43;56.76;95478.13;5072214;28;20107;-56
2022/06/01 06:53:47;;;;;;;3.05;1.50;;;25.90;49.20;;;20.30;55.70;95482.69;5072285;28;20090;-55
2022/06/01 06:56:19;;;;;;;2.38;1.20;;;25.90;48.50;;;20.21;55.94;95485.47;5071064;28;20028;-56
2022/06/01 06:58:49;;;;;;;2.72;1.52;;;25.90;47.80;;;20.04;55.16;95483.66;5072242;28;20044;-55
2022/06/01 07:01:24;;;;;;;3.17;1.30;;;26.00;46.80;;;19.92;55.53;95491.66;5071344;28;20110;-57
2022/06/01 07:03:55;;;;;;;2.72;1.65;;;26.00;46.40;;;20.08;55.28;95487.28;5070897;28;20028;-55
2022/06/01 07:06:24;;;;;;;2.80;1.77;;;25.90;46.50;;;19.77;56.39;95484.09;5070625;28;20494;-58
2022/06/01 07:08:54;;;;;;;1.70;1.55;;;25.90;46.30;;;20.06;55.72;95480.63;5071017;28;20047;-55
2022/06/01 07:11:29;;;;;;;1.65;1.38;;;25.90;45.90;;;20.18;56.10;95479.91;5054185;28;20033;-57
2022/06/01 07:13:56;;;;;;;1.77;1.42;;;25.90;46.60;;;20.21;53.88;95471.97;5070906;28;20035;-58
2022/06/01 07:16:26;;;;;;;7.55;1.80;;;25.90;45.90;;;20.46;53.52;95474.78;5087341;28;20032;-56
2022/06/01 07:18:53;;;;;;;2.35;1.60;;;26.00;45.50;;;20.60;53.72;95478.06;5072101;28;20078;-54
2022/06/01 07:21:21;;;;;;;5.35;1.30;;;26.20;45.40;;;20.64;54.73;95473.56;5075090;28;20078;-54
2022/06/01 07:23:51;;;;;;;3.47;1.75;;;26.10;45.60;;;20.71;53.06;95475.72;5075280;28;20352;-54
2022/06/01 07:26:43;;;;;;;2.90;1.25;;;26.10;45.20;;;20.77;53.37;95477.09;5076003;28;20074;-52
2022/06/01 07:29:21;;;;;;;3.22;1.20;;;26.10;45.10;;;20.86;53.53;95475.13;5066234;28;20044;-57
2022/06/01 07:32:02;;;;;;;2.25;1.70;;;26.20;45.20;;;21.17;53.72;95480.06;5074944;28;20399;-57
2022/06/01 07:34:37;;;;;;;2.88;1.63;;;26.30;45.30;;;21.36;53.48;95482.28;5075849;28;20033;-54
2022/06/01 07:43:07;;;;;;;2.30;2.10;;;26.80;44.20;;;21.39;52.77;95480.81;5075888;28;20071;-55
2022/06/01 07:45:45;;;;;;;;;;;26.80;44.10;;;21.19;51.56;95475.13;5074883;28;20036;-58
2022/06/01 07:48:17;;;;;;;1.55;1.40;;;27.00;44.10;;;21.52;51.52;95474.28;5074583;28;20049;-57
2022/06/01 07:50:52;;;;;;;5.38;1.70;;;27.40;43.20;;;21.54;50.82;95468.56;5075630;28;20056;-58
2022/06/01 07:53:18;;;;;;;3.58;1.90;;;27.50;42.70;;;21.77;50.21;95466.19;5075605;28;20083;-58
2022/06/01 07:55:53;;;;;;;1.85;1.75;;;27.50;42.60;;;21.88;50.18;95470.81;5074104;28;20109;-58
2022/06/01 07:58:19;;;;;;;2.83;1.73;;;27.70;42.10;;;22.06;50.10;95465.97;5073581;28;20049;-58
2022/06/01 08:00:48;;;;;;;2.45;1.80;;;28.00;41.80;;;22.27;50.19;95473.97;5074224;28;20471;-57
2022/06/01 08:03:18;;;;;;;3.17;2.03;;;28.20;41.60;;;22.26;49.51;95471.63;5075439;28;20392;-54
2022/06/01 08:05:44;;;;;;;2.05;1.65;;;28.30;41.10;;;22.16;49.85;95478.28;5075360;28;20025;-57
2022/06/01 08:08:09;;;;;;;3.80;2.13;;;28.30;41.10;;;21.88;50.17;95470.03;5073942;28;20624;-57
2022/06/01 08:10:39;;;;;;;2.85;2.20;;;28.30;40.60;;;22.01;50.06;95470.81;5075228;28;20025;-58
2022/06/01 08:13:14;;;;;;;2.75;2.00;;;28.30;40.50;;;22.18;49.14;95460.53;5075149;28;20039;-58
2022/06/01 08:15:49;;;;;;;2.90;2.10;;;28.40;40.20;;;22.54;48.92;95477.09;5091119;28;20048;-56
2022/06/01 08:18:20;;;;;;;4.65;2.40;;;28.80;40.10;;;22.84;48.96;95486.47;5073987;28;20435;-57
2022/06/01 08:20:47;;;;;;;4.38;2.65;;;29.20;39.80;;;22.90;47.82;95488.94;5074081;28;20028;-55
2022/06/01 08:23:14;;;;;;;3.10;2.38;;;29.60;39.10;;;23.28;47.74;95472.97;5075010;28;20391;-56
2022/06/01 08:25:43;;;;;;;2.60;2.40;;;29.90;39.10;;;23.86;46.29;95480.63;5090678;28;20388;-55
2022/06/01 08:28:09;;;;;;;2.33;2.10;;;30.20;38.70;;;23.81;46.33;95480.09;5073669;28;20534;-61
2022/06/01 08:30:38;;;;;;;2.53;1.90;;;30.50;38.20;;;23.56;46.00;95494.63;5057004;28;20036;-56
2022/06/01 08:33:07;;;;;;;3.25;1.88;;;30.50;37.50;;;23.79;45.28;95491.34;5089725;28;20028;-56
2022/06/01 08:35:42;;;;;;;2.90;2.30;;;30.40;37.20;;;23.86;43.73;95488.78;5074692;28;20442;-54
2022/06/01 08:38:08;;;;;;;3.78;2.22;;;30.60;36.40;;;24.07;43.24;95488.53;5073467;28;20506;-55
2022/06/01 08:41:04;;;;;;;3.80;2.17;;;30.90;35.70;;;24.80;42.34;95483.50;5074907;28;20025;-57
2022/06/01 08:43:54;;;;;;;2.83;2.50;;;31.50;35.30;;;25.41;40.53;95480.03;5057928;28;20017;-54
2022/06/01 08:46:23;;;;;;;4.25;2.75;;;32.10;34.60;;;25.77;39.99;95486.09;5061817;28;20036;-56
2022/06/01 08:48:57;;;;;;;5.05;2.30;;;32.40;34.00;;;25.58;40.31;95492.41;5073682;28;20070;-58
2022/06/01 08:51:33;;;;;;;3.78;2.58;;;32.70;33.20;;;25.97;39.50;95495.81;5073453;28;20028;-55
2022/06/01 08:54:00;;;;;;;4.10;2.60;;;33.10;32.90;;;26.08;39.33;95483.13;5072660;28;20048;-55
2022/06/01 08:56:43;;;;;;;3.63;2.70;;;33.60;32.00;;;26.52;38.12;95490.81;5070397;22;20036;-53
2022/06/01 08:59:33;;;;;;;2.30;2.15;;;33.80;31.40;;;26.37;38.61;95499.13;5062132;28;20043;-55
2022/06/01 09:02:34;;;;;;;2.88;2.55;;;34.00;30.80;;;26.35;38.05;95499.50;5071568;28;20040;-50
2022/06/01 09:05:49;;;;;;;3.33;2.58;;;33.70;30.80;;;26.13;39.44;95494.88;5086430;28;20055;-51
2022/06/01 09:08:44;;;;;;;4.82;2.60;;;33.40;30.70;;;26.41;38.71;95489.06;5093164;28;20073;-51
2022/06/01 09:11:30;;;;;;;3.13;2.40;;;33.50;30.50;;;26.69;37.79;95489.47;5090293;28;20422;-50
2022/06/01 09:14:13;;;;;;;5.00;2.25;;;33.50;30.40;;;26.63;38.39;95492.88;5076907;28;20375;-52
2022/06/01 09:16:49;;;;;;;2.67;2.47;;;33.30;30.60;;;26.88;37.08;95493.22;5092992;28;20038;-50
2022/06/01 09:19:26;;;;;;;3.17;2.35;;;33.40;30.30;;;27.11;36.23;95485.69;5076942;28;20119;-51
2022/06/01 09:24:57;;;;;;;2.35;2.25;;;33.60;30.30;;;27.53;35.73;95498.25;5094513;28;20512;-52
2022/06/01 09:27:52;;;;;;;3.58;2.35;;;33.90;30.00;;;27.79;33.53;95497.34;5092473;28;20431;-51
2022/06/01 09:30:38;;;;;;;4.38;2.40;;;34.10;29.50;;;28.12;31.16;95490.97;5093941;28;20513;-52
2022/06/01 09:33:34;;;;;;;2.53;2.33;;;34.60;29.00;;;28.11;31.70;95485.88;5094114;28;20437;-52
2022/06/01 09:36:09;;;;;;;3.78;2.50;;;35.10;27.80;;;28.20;30.76;95496.50;5077471;28;20440;-53
2022/06/01 09:38:38;;;;;;;3.97;2.50;;;35.30;27.40;;;27.98;31.70;95490.84;5092520;28;20032;-54
2022/06/01 09:41:24;;;;;;;2.30;2.10;;;35.30;27.10;;;27.51;31.22;95491.59;5092675;28;20478;-52
2022/06/01 09:44:04;;;;;;;4.43;2.05;;;35.20;26.70;;;27.02;31.55;95487.16;5092721;28;20028;-56
2022/06/01 09:46:49;;;;;;;5.53;2.28;;;35.00;26.20;;;26.95;31.46;95491.38;5093594;28;20105;-56
2022/06/01 09:49:26;;;;;;;2.15;2.03;;;34.70;26.00;;;26.72;32.58;95494.19;5090232;28;20024;-55
2022/06/01 09:52:01;;;;;;;2.10;1.90;;;34.40;26.00;;;26.84;33.77;95495.13;5086291;28;20111;-56
2022/06/01 09:54:37;;;;;;;4.80;2.30;;;34.20;26.50;;;26.77;32.17;95495.81;5084732;28;20056;-54
2022/06/01 09:57:34;;;;;;;3.08;1.88;;;34.00;26.40;;;26.35;31.82;95495.97;5089347;28;20131;-53
2022/06/01 10:06:21;;;;;;;4.57;2.50;;;33.40;26.80;;;26.02;34.37;95500.19;5072829;28;20043;-56
2022/06/01 10:09:14;;;;;;;4.28;2.25;;;33.20;27.10;;;25.94;34.93;95502.00;5045524;28;20546;-52
2022/06/01 10:11:51;;;;;;;4.47;2.17;;;32.90;27.30;;;25.91;35.60;95502.72;5074887;28;20047;-54
2022/06/01 10:14:58;;;;;;;3.70;2.30;;;32.70;27.70;;;25.60;36.34;95504.53;5070930;28;20028;-56
2022/06/01 10:17:40;;;;;;;2.28;2.00;;;32.40;28.20;;;25.38;35.30;95505.28;5060643;28;20036;-54
2022/06/01 10:20:37;;;;;;;2.92;2.05;;;32.10;28.20;;;25.15;35.89;95503.31;5065987;28;20024;-55
2022/06/01 10:23:26;;;;;;;2.63;2.30;;;31.80;28.10;;;25.05;36.43;95495.69;5075766;28;20393;-52
2022/06/01 10:26:15;;;;;;;7.95;2.10;;;31.70;28.30;;;24.86;35.51;95488.31;5089019;28;20024;-53
2022/06/01 10:28:47;;;;;;;4.18;1.83;;;31.50;28.40;;;24.90;36.06;95496.56;5092912;28;20039;-56
2022/06/01 10:32:01;;;;;;;2.50;1.90;;;31.30;28.50;;;24.76;34.93;95490.81;5092838;28;20036;-51
2022/06/01 10:35:17;;;;;;;3.30;1.73;;;31.00;28.30;;;24.61;35.03;95490.53;5092678;28;20036;-53
2022/06/01 10:38:35;;;;;;;5.07;1.83;;;30.80;28.40;;;24.56;35.52;95485.34;5080311;28;20040;-51
2022/06/01 10:41:31;;;;;;;3.38;1.73;;;30.50;28.60;;;24.42;35.38;95491.28;5072643;28;20085;-54
2022/06/01 10:44:12;;;;;;;1.67;1.50;;;30.30;28.70;;;24.18;36.13;95486.03;5091819;28;20034;-55
2022/06/01 10:47:03;;;;;;;2.85;1.70;;;30.10;28.70;;;24.01;36.83;95479.84;5091477;28;20028;-51
2022/06/01 10:50:09;;;;;;;2.15;1.77;;;30.00;28.90;;;23.72;37.00;95496.59;5091648;28;20024;-54
2022/06/01 10:52:43;;;;;;;2.75;2.17;;;29.80;28.90;;;23.76;37.27;95489.34;5091571;28;20474;-52
2022/06/01 10:55:34;;;;;;;4.20;1.70;;;29.70;29.10;;;23.55;37.68;95492.28;5074452;28;20024;-55
2022/06/01 10:58:04;;;;;;;5.90;2.20;;;29.50;29.30;;;23.57;38.04;95495.44;5090923;28;20055;-52
2022/06/01 11:01:09;;;;;;;6.20;1.80;;;29.50;29.40;;;23.61;38.49;95496.31;5077707;28;20027;-53
2022/06/01 11:04:24;;;;;;;5.03;2.17;;;29.40;29.60;;;23.68;38.60;95498.41;5079629;28;20044;-55
2022/06/01 11:07:29;;;;;;;2.35;2.08;;;29.40;29.80;;;23.64;39.12;95498.34;5090980;28;20071;-52
2022/06/01 11:10:12;;;;;;;3.03;1.98;;;29.30;30.30;;;23.60;38.64;95492.03;5092373;28;20042;-50
2022/06/01 11:13:39;;;;;;;3.90;2.13;;;29.10;30.30;;;23.58;39.25;95490.78;5092493;28;20032;-51
2022/06/01 11:16:37;;;;;;;4.40;2.20;;;29.00;30.60;;;23.55;40.03;95503.16;5090832;28;20039;-51
2022/06/01 11:19:26;;;;;;;3.75;1.95;;;29.10;31.00;;;23.70;39.04;95499.69;5074233;28;20024;-53
2022/06/01 11:22:35;;;;;;;2.33;1.67;;;29.20;31.00;;;23.72;38.13;95489.25;5092234;28;20035;-52
2022/06/01 11:25:36;;;;;;;4.53;2.00;;;29.40;30.60;;;23.74;38.12;95480.72;5077032;28;20033;-50
2022/06/01 11:28:16;;;;;;;2.15;1.95;;;29.60;30.40;;;23.88;39.22;95483.00;5092014;28;20024;-53